Aviation Digital Data Service (ADDS)

Output produced by TAFs form (0835 UTC 21 October 2017)
found at http://www.aviationweather.gov/adds/tafs/
 
KMOB 210756Z AUTO 07008KT 10SM CLR 19/16 A3008 RMK AO2 SLP184 T01940156
KMOB 210536Z 2106/2206 07005KT P6SM BKN250 
     TEMPO 2109/2113 5SM BR 
     FM211500 11011KT P6SM SCT030 BKN250 
     FM211800 11013KT P6SM VCSH BKN040 BKN250